Terminal Aerodrome Forecast
Issued by NWS

Home | Current Version | Previous Version | Text Only | Print | Product List | Glossary On
Versions: 1 2 3 4 5 6 7 8 9 10 11 12
000
FTUS45 KREV 181100
TAFCXP
TAF
KCXP 181120Z 1812/1912 32010KT P6SM SCT140 BKN180
     FM181600 VRB03KT P6SM SCT180
     FM182200 25007KT P6SM VCSH SCT060 BKN100
     FM190400 VRB04KT P6SM SCT050=

USA.gov is the U.S. government's official web portal to all federal, state and local government web resources and services.